createdAt,value
2022-10-11T00:01:32.479Z,9.39
2022-10-11T00:04:03.643Z,9.36
2022-10-11T00:06:32.384Z,9.35
2022-10-11T00:09:03.189Z,9.36
2022-10-11T00:11:31.708Z,9.35
2022-10-11T00:14:00.890Z,9.39
2022-10-11T00:16:29.681Z,9.39
2022-10-11T00:18:59.418Z,9.39
2022-10-11T00:21:29.580Z,9.40
2022-10-11T00:24:00.199Z,9.46
2022-10-11T00:26:28.650Z,9.50
2022-10-11T00:28:58.335Z,9.43
2022-10-11T00:31:26.826Z,9.45
2022-10-11T00:33:58.104Z,9.47
2022-10-11T00:36:34.136Z,9.43
2022-10-11T00:39:02.795Z,9.45
2022-10-11T00:41:31.320Z,9.47
2022-10-11T00:44:11.194Z,9.47
2022-10-11T00:46:43.929Z,9.48
2022-10-11T00:49:23.561Z,9.48
2022-10-11T00:51:59.540Z,9.49
2022-10-11T00:54:32.653Z,9.54
2022-10-11T00:57:07.709Z,9.51
2022-10-11T00:59:41.708Z,9.47
2022-10-11T01:02:11.626Z,9.48
2022-10-11T01:04:41.294Z,9.50
2022-10-11T01:07:12.488Z,9.48
2022-10-11T01:09:41.655Z,9.52
2022-10-11T01:12:17.245Z,9.52
2022-10-11T01:15:13.186Z,9.53
2022-10-11T01:17:52.190Z,9.51
2022-10-11T01:20:40.369Z,9.50
2022-10-11T01:23:46.068Z,9.52
2022-10-11T01:26:43.992Z,9.54
2022-10-11T01:29:22.727Z,9.49
2022-10-11T01:32:00.478Z,9.48
2022-10-11T01:34:34.975Z,9.47
2022-10-11T01:37:09.110Z,9.49
2022-10-11T01:39:45.135Z,9.50
2022-10-11T01:42:16.033Z,9.52
2022-10-11T01:44:49.359Z,9.52
2022-10-11T01:47:23.435Z,9.54
2022-10-11T01:50:03.116Z,9.58
2022-10-11T01:53:21.346Z,9.54
2022-10-11T01:55:56.641Z,9.53
2022-10-11T01:58:44.701Z,9.59
2022-10-11T02:01:32.552Z,9.60
2022-10-11T02:04:14.270Z,9.56
2022-10-11T02:06:52.290Z,9.53
2022-10-11T02:09:32.074Z,9.51
2022-10-11T02:12:11.080Z,9.46
2022-10-11T02:14:44.262Z,9.45
2022-10-11T02:17:18.225Z,9.48
2022-10-11T02:19:51.889Z,9.50
2022-10-11T02:22:26.120Z,9.50
2022-10-11T02:25:00.589Z,9.52
2022-10-11T02:27:35.170Z,9.51
2022-10-11T02:30:07.435Z,9.52
2022-10-11T02:32:37.884Z,9.52
2022-10-11T02:35:13.567Z,9.43
2022-10-11T02:37:49.809Z,9.39
2022-10-11T02:40:26.436Z,9.40
2022-10-11T02:42:59.774Z,9.40
2022-10-11T02:45:36.162Z,9.41
2022-10-11T02:48:07.192Z,9.42
2022-10-11T02:50:38.855Z,9.43
2022-10-11T02:53:07.511Z,9.43
2022-10-11T02:55:37.739Z,9.46
2022-10-11T02:58:06.100Z,9.48
2022-10-11T03:00:34.707Z,9.47
2022-10-11T03:03:05.437Z,9.47
2022-10-11T03:05:40.650Z,9.50
2022-10-11T03:08:12.958Z,9.51
2022-10-11T03:10:43.440Z,9.53
2022-10-11T03:13:16.014Z,9.55
2022-10-11T03:16:02.315Z,9.56
2022-10-11T03:18:31.829Z,9.56
2022-10-11T03:21:00.211Z,9.54
2022-10-11T03:23:30.343Z,9.50
2022-10-11T03:25:59.098Z,9.53
2022-10-11T03:28:27.650Z,9.53
2022-10-11T03:30:56.489Z,9.55
2022-10-11T03:33:25.469Z,9.51
2022-10-11T03:35:55.099Z,9.49
2022-10-11T03:38:25.759Z,9.48
2022-10-11T03:40:58.113Z,9.48
2022-10-11T03:43:26.597Z,9.50
2022-10-11T03:45:56.167Z,9.51
2022-10-11T03:48:24.581Z,9.50
2022-10-11T03:50:53.743Z,9.55
2022-10-11T03:53:23.383Z,9.50
2022-10-11T03:55:54.969Z,9.49
2022-10-11T03:58:31.739Z,9.50
2022-10-11T04:01:00.304Z,9.53
2022-10-11T04:03:30.334Z,9.55
2022-10-11T04:06:01.115Z,9.59
2022-10-11T04:08:30.331Z,9.59
2022-10-11T04:10:59.111Z,9.55
2022-10-11T04:13:28.107Z,9.51
2022-10-11T04:15:59.132Z,9.49
2022-10-11T04:18:33.957Z,9.49
2022-10-11T04:21:03.575Z,9.49
2022-10-11T04:23:32.132Z,9.45
2022-10-11T04:26:02.441Z,9.45
2022-10-11T04:28:31.675Z,9.44
2022-10-11T04:31:04.709Z,9.47
2022-10-11T04:33:33.620Z,9.53
2022-10-11T04:36:02.305Z,9.45
2022-10-11T04:38:32.309Z,9.44
2022-10-11T04:41:08.638Z,9.41
2022-10-11T04:43:37.756Z,9.42
2022-10-11T04:46:08.839Z,9.42
2022-10-11T04:48:37.602Z,9.36
2022-10-11T04:51:06.713Z,9.37
2022-10-11T04:53:35.771Z,9.34
2022-10-11T04:56:06.772Z,9.36
2022-10-11T04:58:36.585Z,9.36
2022-10-11T05:01:07.474Z,9.37
2022-10-11T05:03:36.876Z,9.34
2022-10-11T05:06:07.568Z,9.36
2022-10-11T05:08:36.364Z,9.38
2022-10-11T05:11:10.258Z,9.34
2022-10-11T05:13:40.183Z,9.35
2022-10-11T05:16:11.344Z,9.36
2022-10-11T05:18:41.175Z,9.35
2022-10-11T05:21:16.058Z,9.38
2022-10-11T05:23:45.702Z,9.41
2022-10-11T05:26:15.158Z,9.39
2022-10-11T05:28:45.574Z,9.39
2022-10-11T05:31:18.067Z,9.40
2022-10-11T05:33:46.953Z,9.42
2022-10-11T05:36:15.513Z,9.43
2022-10-11T05:38:43.935Z,9.41
2022-10-11T05:41:15.523Z,9.42
2022-10-11T05:43:46.218Z,9.43
2022-10-11T05:46:16.660Z,9.44
2022-10-11T05:48:45.140Z,9.43
2022-10-11T05:51:14.410Z,9.46
2022-10-11T05:53:43.287Z,9.44
2022-10-11T05:56:21.840Z,9.47
2022-10-11T05:58:51.524Z,9.49
2022-10-11T06:01:24.889Z,9.47
2022-10-11T06:03:54.140Z,9.45
2022-10-11T06:06:22.917Z,9.46
2022-10-11T06:08:52.477Z,9.50
2022-10-11T06:11:25.584Z,9.49
2022-10-11T06:13:55.944Z,9.50
2022-10-11T06:16:27.090Z,9.52
2022-10-11T06:18:55.868Z,9.52
2022-10-11T06:21:25.205Z,9.49
2022-10-11T06:24:00.840Z,9.50
2022-10-11T06:26:29.950Z,9.50
2022-10-11T06:28:58.819Z,9.52
2022-10-11T06:31:30.065Z,9.55
2022-10-11T06:34:00.743Z,9.58
2022-10-11T06:36:30.622Z,9.56
2022-10-11T06:39:01.174Z,9.59
2022-10-11T06:41:31.635Z,9.62
2022-10-11T06:44:00.374Z,9.65
2022-10-11T06:46:32.914Z,9.66
2022-10-11T06:49:01.429Z,9.68
2022-10-11T06:51:30.398Z,9.72
2022-10-11T06:54:02.008Z,9.74
2022-10-11T06:56:32.405Z,9.76
2022-10-11T06:59:02.098Z,9.78
2022-10-11T07:01:32.864Z,9.78
2022-10-11T07:04:03.478Z,9.76
2022-10-11T07:06:32.725Z,9.79
2022-10-11T07:09:02.450Z,9.77
2022-10-11T07:11:31.052Z,9.74
2022-10-11T07:14:07.935Z,9.76
2022-10-11T07:16:40.073Z,9.82
2022-10-11T07:19:09.136Z,9.85
2022-10-11T07:21:38.155Z,9.88
2022-10-11T07:24:07.910Z,9.91
2022-10-11T07:26:38.707Z,9.90
2022-10-11T07:29:08.627Z,9.93
2022-10-11T07:31:41.001Z,9.91
2022-10-11T07:34:11.872Z,9.95
2022-10-11T07:36:40.852Z,10.00
2022-10-11T07:39:10.809Z,9.99
2022-10-11T07:41:45.453Z,10.01
2022-10-11T07:44:15.161Z,10.05
2022-10-11T07:46:45.242Z,10.06
2022-10-11T07:49:14.182Z,10.10
2022-10-11T07:51:43.029Z,10.15
2022-10-11T07:54:12.981Z,10.19
2022-10-11T07:56:41.816Z,10.23
2022-10-11T07:59:12.418Z,10.26
2022-10-11T08:01:41.597Z,10.31
2022-10-11T08:04:11.911Z,10.35
2022-10-11T08:06:40.868Z,10.38
2022-10-11T08:09:09.744Z,10.41
2022-10-11T08:11:41.273Z,10.51
2022-10-11T08:14:11.648Z,10.58
2022-10-11T08:16:41.287Z,10.59
2022-10-11T08:19:11.955Z,10.61
2022-10-11T08:21:40.749Z,10.55
2022-10-11T08:24:09.689Z,10.66
2022-10-11T08:26:38.763Z,10.64
2022-10-11T08:29:08.642Z,10.63
2022-10-11T08:31:37.220Z,10.65
2022-10-11T08:34:05.740Z,10.63
2022-10-11T08:36:37.795Z,10.65
2022-10-11T08:39:08.931Z,10.68
2022-10-11T08:41:42.586Z,10.72
2022-10-11T08:44:58.458Z,10.71
2022-10-11T08:47:27.837Z,10.74
2022-10-11T08:49:56.606Z,10.80
2022-10-11T08:52:33.721Z,10.77
2022-10-11T08:55:06.257Z,10.85
2022-10-11T08:57:38.438Z,10.92
2022-10-11T09:00:14.573Z,10.86
2022-10-11T09:03:07.630Z,10.90
2022-10-11T09:05:54.659Z,10.92
2022-10-11T09:08:32.551Z,10.97
2022-10-11T09:11:11.564Z,11.03
2022-10-11T09:14:05.756Z,11.03
2022-10-11T09:16:50.274Z,11.11
2022-10-11T09:19:47.863Z,11.10
2022-10-11T09:22:29.519Z,11.21
2022-10-11T09:25:13.153Z,11.24
2022-10-11T09:28:02.228Z,11.28
2022-10-11T09:30:32.323Z,11.32
2022-10-11T09:33:12.253Z,11.36
2022-10-11T09:35:45.119Z,11.47
2022-10-11T09:38:23.228Z,11.47
2022-10-11T09:41:08.533Z,11.58
2022-10-11T09:43:37.498Z,11.63
2022-10-11T09:46:18.968Z,11.71
2022-10-11T09:48:48.777Z,11.75
2022-10-11T09:51:22.319Z,11.92
2022-10-11T09:53:55.764Z,11.98
2022-10-11T09:56:28.842Z,12.20
2022-10-11T09:59:27.827Z,12.25
2022-10-11T10:02:23.634Z,12.42
2022-10-11T10:05:04.818Z,12.40
2022-10-11T10:07:35.669Z,12.44
2022-10-11T10:10:28.503Z,12.59
2022-10-11T10:13:01.690Z,12.54
2022-10-11T10:15:32.747Z,12.67
2022-10-11T10:18:02.174Z,12.68
2022-10-11T10:20:35.555Z,12.71
2022-10-11T10:23:11.422Z,12.72
2022-10-11T10:25:43.500Z,12.83
2022-10-11T10:28:24.135Z,12.72
2022-10-11T10:30:55.605Z,12.73
2022-10-11T10:33:25.917Z,12.83
2022-10-11T10:35:58.647Z,12.91
2022-10-11T10:38:32.116Z,13.01
2022-10-11T10:41:04.622Z,13.02
2022-10-11T10:43:38.704Z,13.02
2022-10-11T10:46:29.369Z,12.94
2022-10-11T10:49:41.545Z,12.87
2022-10-11T10:52:21.876Z,12.94
2022-10-11T10:54:58.098Z,13.03
2022-10-11T10:57:34.969Z,13.07
2022-10-11T11:00:15.696Z,13.06
2022-10-11T11:02:52.431Z,13.13
2022-10-11T11:05:43.088Z,13.26
2022-10-11T11:08:18.673Z,13.35
2022-10-11T11:10:56.683Z,13.52
2022-10-11T11:13:33.295Z,13.47
2022-10-11T11:16:15.077Z,13.68
2022-10-11T11:18:53.556Z,13.76
2022-10-11T11:21:34.280Z,13.73
2022-10-11T11:24:17.204Z,13.83
2022-10-11T11:26:52.394Z,13.89
2022-10-11T11:29:55.379Z,14.02
2022-10-11T11:32:40.309Z,13.90
2022-10-11T11:35:16.454Z,13.90
2022-10-11T11:37:48.407Z,13.86
2022-10-11T11:40:19.862Z,13.94
2022-10-11T11:42:52.239Z,13.86
2022-10-11T11:45:26.455Z,13.97
2022-10-11T11:48:03.841Z,14.05
2022-10-11T11:50:40.450Z,13.97
2022-10-11T11:53:16.489Z,14.03
2022-10-11T11:55:54.782Z,14.05
2022-10-11T11:58:37.276Z,14.06
2022-10-11T12:01:26.462Z,14.05
2022-10-11T12:04:04.838Z,14.09
2022-10-11T12:06:37.923Z,13.99
2022-10-11T12:09:22.026Z,13.81
2022-10-11T12:11:55.902Z,13.65
2022-10-11T12:14:37.909Z,13.56
2022-10-11T12:17:18.499Z,13.59
2022-10-11T12:20:17.567Z,13.43
2022-10-11T12:23:01.570Z,13.50
2022-10-11T12:25:45.635Z,13.40
2022-10-11T12:29:02.175Z,13.46
2022-10-11T12:31:33.226Z,13.63
2022-10-11T12:34:34.009Z,13.68
2022-10-11T12:37:42.620Z,13.66
2022-10-11T12:40:43.152Z,13.85
2022-10-11T12:43:24.370Z,13.68
2022-10-11T12:45:53.278Z,13.71
2022-10-11T12:48:50.767Z,13.62
2022-10-11T12:51:32.544Z,13.45
2022-10-11T12:54:29.100Z,13.39
2022-10-11T12:57:27.213Z,13.60
2022-10-11T12:59:56.056Z,13.69
2022-10-11T13:02:30.538Z,13.94
2022-10-11T13:05:09.489Z,14.04
2022-10-11T13:07:37.964Z,13.80
2022-10-11T13:10:15.384Z,13.80
2022-10-11T13:12:47.399Z,13.77
2022-10-11T13:15:19.813Z,13.64
2022-10-11T13:17:50.751Z,13.63
2022-10-11T13:20:22.262Z,13.66
2022-10-11T13:22:55.142Z,13.86
2022-10-11T13:25:30.215Z,14.03
2022-10-11T13:28:00.151Z,14.04
2022-10-11T13:30:33.444Z,13.95
2022-10-11T13:33:03.225Z,13.95
2022-10-11T13:35:36.908Z,13.96
2022-10-11T13:38:11.009Z,13.88
2022-10-11T13:40:48.685Z,13.64
2022-10-11T13:43:28.654Z,13.64
2022-10-11T13:45:59.068Z,13.64
2022-10-11T13:48:31.958Z,13.73
2022-10-11T13:51:08.339Z,13.76
2022-10-11T13:53:38.344Z,13.59
2022-10-11T13:56:12.786Z,13.60
2022-10-11T13:58:47.833Z,13.52
2022-10-11T14:01:21.438Z,13.43
2022-10-11T14:03:56.846Z,13.45
2022-10-11T14:06:46.012Z,13.70
2022-10-11T14:09:25.566Z,13.93
2022-10-11T14:11:56.294Z,13.81
2022-10-11T14:14:40.598Z,13.89
2022-10-11T14:17:21.589Z,13.95
2022-10-11T14:20:14.169Z,13.99
2022-10-11T14:22:43.034Z,13.96
2022-10-11T14:25:11.519Z,14.05
2022-10-11T14:27:42.780Z,14.04
2022-10-11T14:30:27.424Z,14.06
2022-10-11T14:33:03.240Z,14.00
2022-10-11T14:35:33.777Z,14.16
2022-10-11T14:38:02.928Z,14.27
2022-10-11T14:40:38.226Z,14.42
2022-10-11T14:43:09.687Z,14.43
2022-10-11T14:45:38.246Z,14.36
2022-10-11T14:48:07.295Z,14.36
2022-10-11T14:50:42.033Z,14.43
2022-10-11T14:53:13.322Z,14.52
2022-10-11T14:55:43.462Z,14.60
2022-10-11T14:58:17.647Z,14.30
2022-10-11T15:00:48.560Z,14.04
2022-10-11T15:03:17.357Z,13.96
2022-10-11T15:05:47.144Z,14.00
2022-10-11T15:08:17.121Z,13.86
2022-10-11T15:10:45.430Z,13.72
2022-10-11T15:13:16.736Z,13.82
2022-10-11T15:15:48.939Z,13.65
2022-10-11T15:18:19.002Z,13.63
2022-10-11T15:20:47.983Z,13.58
2022-10-11T15:23:26.582Z,13.48
2022-10-11T15:25:57.400Z,13.35
2022-10-11T15:28:30.812Z,13.18
2022-10-11T15:31:00.084Z,13.13
2022-10-11T15:33:36.724Z,13.13
2022-10-11T15:36:06.123Z,13.10
2022-10-11T15:38:37.513Z,13.17
2022-10-11T15:41:08.840Z,13.09
2022-10-11T15:43:46.458Z,13.02
2022-10-11T15:46:49.078Z,13.00
2022-10-11T15:49:19.771Z,13.05
2022-10-11T15:51:48.705Z,13.04
2022-10-11T15:54:32.018Z,12.96
2022-10-11T15:57:07.318Z,13.13
2022-10-11T15:59:37.767Z,13.02
2022-10-11T16:02:07.274Z,13.00
2022-10-11T16:04:37.167Z,12.92
2022-10-11T16:07:11.624Z,12.87
2022-10-11T16:09:44.529Z,12.90
2022-10-11T16:12:31.557Z,12.85
2022-10-11T16:15:03.809Z,12.91
2022-10-11T16:17:34.744Z,12.85
2022-10-11T16:20:07.404Z,12.95
2022-10-11T16:22:37.771Z,12.94
2022-10-11T16:25:07.533Z,12.91
2022-10-11T16:27:42.510Z,12.86
2022-10-11T16:30:27.644Z,12.80
2022-10-11T16:32:58.896Z,12.87
2022-10-11T16:35:32.262Z,12.81
2022-10-11T16:38:02.301Z,12.76
2022-10-11T16:40:31.675Z,12.78
2022-10-11T16:43:07.501Z,12.72
2022-10-11T16:45:38.639Z,12.74
2022-10-11T16:48:09.884Z,12.84
2022-10-11T16:50:39.790Z,12.73
2022-10-11T16:53:08.767Z,12.76
2022-10-11T16:55:41.599Z,12.73
2022-10-11T16:58:13.164Z,12.71
2022-10-11T17:00:45.302Z,12.70
2022-10-11T17:03:25.087Z,12.68
2022-10-11T17:05:56.009Z,12.66
2022-10-11T17:08:32.995Z,12.64
2022-10-11T17:11:03.337Z,12.63
2022-10-11T17:13:32.686Z,12.57
2022-10-11T17:16:06.067Z,12.60
2022-10-11T17:18:36.816Z,12.60
2022-10-11T17:21:07.295Z,12.55
2022-10-11T17:45:28.340Z,12.26
2022-10-11T17:48:21.909Z,12.28
2022-10-11T17:50:52.035Z,12.23
2022-10-11T17:53:35.396Z,12.26
2022-10-11T17:56:20.990Z,12.18
2022-10-11T17:59:16.216Z,12.14
2022-10-11T18:01:57.231Z,12.09
2022-10-11T18:04:30.214Z,12.08
2022-10-11T18:07:00.182Z,12.11
2022-10-11T18:09:29.458Z,12.12
2022-10-11T18:11:58.846Z,12.08
2022-10-11T18:14:33.487Z,12.05
2022-10-11T18:17:03.951Z,12.11
2022-10-11T18:19:33.041Z,12.01
2022-10-11T18:22:06.829Z,12.02
2022-10-11T18:24:41.908Z,11.93
2022-10-11T18:27:11.495Z,12.01
2022-10-11T18:29:41.500Z,11.86
2022-10-11T18:32:12.434Z,11.81
2022-10-11T18:34:41.143Z,11.77
2022-10-11T18:37:09.911Z,11.74
2022-10-11T18:39:38.282Z,11.84
2022-10-11T18:42:08.272Z,11.78
2022-10-11T18:44:37.180Z,11.89
2022-10-11T18:47:08.127Z,11.89
2022-10-11T18:49:40.152Z,11.77
2022-10-11T18:52:10.065Z,11.75
2022-10-11T18:54:39.192Z,11.76
2022-10-11T18:57:10.415Z,11.73
2022-10-11T18:59:40.119Z,11.79
2022-10-11T19:02:10.749Z,11.69
2022-10-11T19:04:48.900Z,11.71
2022-10-11T19:07:19.146Z,11.71
2022-10-11T19:09:49.630Z,11.84
2022-10-11T19:12:18.361Z,11.87
2022-10-11T19:14:46.904Z,11.76
2022-10-11T19:17:22.642Z,11.72
2022-10-11T19:19:53.807Z,11.70
2022-10-11T19:22:22.422Z,11.67
2022-10-11T19:24:50.930Z,11.76
2022-10-11T19:27:22.668Z,11.66
2022-10-11T19:29:52.443Z,11.74
2022-10-11T19:32:21.402Z,11.68
2022-10-11T19:34:57.911Z,11.61
2022-10-11T19:37:27.221Z,11.62
2022-10-11T19:39:57.087Z,11.65
2022-10-11T19:42:25.603Z,11.64
2022-10-11T19:44:55.368Z,11.73
2022-10-11T19:47:24.054Z,11.64
2022-10-11T19:49:53.025Z,11.65
2022-10-11T19:52:24.449Z,11.69
2022-10-11T19:54:53.010Z,11.67
2022-10-11T19:57:21.975Z,11.66
2022-10-11T19:59:50.653Z,11.67
2022-10-11T20:02:19.235Z,11.69
2022-10-11T20:04:53.141Z,11.67
2022-10-11T20:07:23.696Z,11.67
2022-10-11T20:09:52.477Z,11.69
2022-10-11T20:12:21.312Z,11.65
2022-10-11T20:14:49.947Z,11.63
2022-10-11T20:17:18.884Z,11.65
2022-10-11T20:19:47.474Z,11.71
2022-10-11T20:22:16.116Z,11.63
2022-10-11T20:24:46.360Z,11.63
2022-10-11T20:27:15.040Z,11.68
2022-10-11T20:29:43.542Z,11.76
2022-10-11T20:32:19.174Z,11.72
2022-10-11T20:34:48.293Z,11.66
2022-10-11T20:37:23.227Z,11.71
2022-10-11T20:39:57.048Z,11.73
2022-10-11T20:42:29.769Z,11.73
2022-10-11T20:44:59.237Z,11.81
2022-10-11T20:47:27.618Z,11.76
2022-10-11T20:49:56.137Z,11.86
2022-10-11T20:52:25.950Z,11.91
2022-10-11T20:54:57.914Z,11.80
2022-10-11T20:57:28.374Z,11.75
2022-10-11T20:59:57.144Z,11.76
2022-10-11T21:02:25.749Z,11.76
2022-10-11T21:04:57.733Z,11.74
2022-10-11T21:07:26.337Z,11.70
2022-10-11T21:09:56.687Z,11.66
2022-10-11T21:12:25.528Z,11.63
2022-10-11T21:14:54.371Z,11.73
2022-10-11T21:17:23.206Z,11.71
2022-10-11T21:19:51.741Z,11.73
2022-10-11T21:22:20.521Z,11.70
2022-10-11T21:24:52.477Z,11.66
2022-10-11T21:27:22.782Z,11.77
2022-10-11T21:29:51.389Z,11.77
2022-10-11T21:32:20.771Z,11.76
2022-10-11T21:34:49.184Z,11.76
2022-10-11T21:37:18.345Z,11.83
2022-10-11T21:39:46.882Z,11.75
2022-10-11T21:42:15.297Z,11.79
2022-10-11T21:44:45.514Z,11.79
2022-10-11T21:47:14.650Z,11.80
2022-10-11T21:49:43.865Z,11.77
2022-10-11T21:52:12.474Z,11.76
2022-10-11T21:54:41.574Z,11.80
2022-10-11T21:57:11.561Z,11.86
2022-10-11T21:59:40.622Z,11.84
2022-10-11T22:02:11.617Z,11.84
2022-10-11T22:04:40.155Z,11.86
2022-10-11T22:07:09.089Z,11.96
2022-10-11T22:09:38.187Z,11.84
2022-10-11T22:12:06.972Z,11.80
2022-10-11T22:14:36.301Z,11.84
2022-10-11T22:17:04.760Z,11.80
2022-10-11T22:19:35.314Z,11.82
2022-10-11T22:22:03.869Z,11.87
2022-10-11T22:24:32.492Z,11.81
2022-10-11T22:27:01.124Z,11.83
2022-10-11T22:29:34.286Z,11.83
2022-10-11T22:32:03.100Z,11.85
2022-10-11T22:34:32.774Z,11.80
2022-10-11T22:37:03.478Z,11.87
2022-10-11T22:39:32.320Z,11.80
2022-10-11T22:42:00.943Z,11.95
2022-10-11T22:44:29.597Z,11.79
2022-10-11T22:46:58.051Z,11.71
2022-10-11T22:49:27.045Z,11.81
2022-10-11T22:51:56.004Z,11.78
2022-10-11T22:54:26.524Z,11.77
2022-10-11T22:56:55.481Z,11.72
2022-10-11T22:59:23.844Z,11.67
2022-10-11T23:01:52.566Z,11.66
2022-10-11T23:04:21.438Z,11.59
2022-10-11T23:06:50.222Z,11.49
2022-10-11T23:09:18.762Z,11.50
2022-10-11T23:11:49.407Z,11.48
2022-10-11T23:14:17.858Z,11.57
2022-10-11T23:16:46.542Z,11.48
2022-10-11T23:19:15.215Z,11.42
2022-10-11T23:21:43.827Z,11.41
2022-10-11T23:24:12.760Z,11.33
2022-10-11T23:26:41.463Z,11.34
2022-10-11T23:29:11.990Z,11.37
2022-10-11T23:31:40.964Z,11.38
2022-10-11T23:34:09.364Z,11.35
2022-10-11T23:36:37.942Z,11.38
2022-10-11T23:39:07.814Z,11.40
2022-10-11T23:41:36.431Z,11.34
2022-10-11T23:44:05.117Z,11.32
2022-10-11T23:46:35.718Z,11.40
2022-10-11T23:49:04.425Z,11.36
2022-10-11T23:51:33.248Z,11.36
2022-10-11T23:54:02.154Z,11.52
2022-10-11T23:56:30.608Z,11.45
2022-10-11T23:58:59.551Z,11.42
